Tibooburra, Australia
Current Conditions -  °F | °C
As of 5:00 PM on Sunday 26 Oct 2014 (Local Time) from YBHI Reporting Station
Scattered Clouds Scattered Clouds  
Wind Chill: 86°   Ceiling: Unl
Heat Index: 86°   Visibility: 6mi
Dew Point: 43°   Wind: 12mph
Humidity: 22%   Direction: 150°SSE
Pressure: 29.91"   Gusts: NA
Location:  29.43°S, 142.01°E
Report Text: YBHI 260600Z AUTO 15010KT 9999 // SCT084 SCT120 30/06 Q1013
Loading
Personal Weather Stations






























Interactive Weather Map
Tropical Storm Tracking
New forecast layout! Learn more

10-Day Weather Forecast

Advertisements
Track Severe Weather on mobile